Terminal Aerodrome Forecast
Issued by NWS Jackson, KY

Home | Current Version | Previous Version | Text Only | Print | Product List | Glossary On
Versions: 1 2 3 4 5 6 7 8 9 10 11 12 13
969
FTUS43 KJKL 140536
TAFLOZ
TAF
KLOZ 140536Z 1406/1506 25011G20KT P6SM BKN050
     FM140900 29010G20KT P6SM VCSH BKN025
     FM141100 30007G15KT P6SM BKN025
     FM141300 31007KT P6SM BKN050
     FM150200 VRB03KT P6SM SCT150=

USA.gov is the U.S. government's official web portal to all federal, state and local government web resources and services.